Time;durP1;ratioP1;P1;durP2;ratioP2;P2;SDS_P1;SDS_P2;PMS_P1;PMS_P2;Temp;Humidity;BMP_temperature;BMP_pressure;BME280_temperature;BME280_humidity;BME280_pressure;Samples;Min_cycle;Max_cycle;Signal;HPM_P1;HPM_P2
2023/05/19 00:00:30;;;;;;;6.47;2.50;;;9.40;99.90;;;;;;12497527;28;20127;-38
2023/05/19 00:06:35;;;;;;;6.63;2.60;;;9.00;99.90;;;;;;12480431;28;20143;-37
2023/05/19 00:12:38;;;;;;;6.47;2.38;;;8.90;99.90;;;;;;12546671;28;20052;-38
2023/05/19 00:18:42;;;;;;;8.10;2.58;;;9.30;99.90;;;;;;12532206;28;20100;-35
2023/05/19 00:24:45;;;;;;;9.88;2.60;;;9.40;99.90;;;;;;12534571;28;20115;-35
2023/05/19 00:30:55;;;;;;;5.20;3.15;;;9.20;99.90;;;;;;12532633;28;20048;-35
2023/05/19 00:36:58;;;;;;;6.03;2.17;;;8.90;99.90;;;;;;12512995;28;20113;-35
2023/05/19 00:43:01;;;;;;;7.72;2.28;;;8.80;99.90;;;;;;12531035;28;20045;-35
2023/05/19 00:49:04;;;;;;;6.13;2.15;;;8.90;99.90;;;;;;12513433;28;20068;-35
2023/05/19 00:55:09;;;;;;;5.68;2.10;;;8.80;99.90;;;;;;12527268;28;20498;-35
2023/05/19 01:01:15;;;;;;;8.32;2.15;;;8.60;99.90;;;;;;12534222;28;20049;-35
2023/05/19 01:15:28;;;;;;;10.80;2.20;;;8.50;99.90;;;;;;12521944;28;20412;-35
2023/05/19 01:21:54;;;;;;;7.57;2.00;;;8.50;99.90;;;;;;12525183;28;20053;-35
2023/05/19 01:28:38;;;;;;;6.53;2.00;;;8.50;99.90;;;;;;12503556;28;20050;-36
2023/05/19 01:34:47;;;;;;;7.57;2.43;;;8.70;99.90;;;;;;12505351;28;20182;-35
2023/05/19 01:40:53;;;;;;;7.82;2.28;;;8.80;99.90;;;;;;12533714;28;20049;-35
2023/05/19 01:46:58;;;;;;;5.22;1.90;;;8.80;99.90;;;;;;12519976;28;20364;-36
2023/05/19 01:53:02;;;;;;;5.68;2.20;;;8.80;99.90;;;;;;12495507;28;20057;-35
2023/05/19 01:59:31;;;;;;;6.32;2.08;;;8.60;99.90;;;;;;12502879;28;20653;-35
2023/05/19 02:06:09;;;;;;;8.73;2.47;;;8.30;99.90;;;;;;12527808;28;20052;-35
2023/05/19 02:12:19;;;;;;;6.70;2.20;;;7.90;99.90;;;;;;12521334;28;20122;-35
2023/05/19 02:18:23;;;;;;;5.45;2.63;;;7.80;99.90;;;;;;12530347;28;20491;-36
2023/05/19 02:24:26;;;;;;;10.73;2.37;;;7.60;99.90;;;;;;12525852;28;20508;-35
2023/05/19 02:30:30;;;;;;;9.75;2.25;;;7.60;99.90;;;;;;12529440;28;20374;-35
2023/05/19 02:36:37;;;;;;;7.30;2.20;;;7.70;99.90;;;;;;12508461;28;20195;-36
2023/05/19 02:42:42;;;;;;;5.78;2.17;;;7.80;99.90;;;;;;12533358;28;20056;-35
2023/05/19 02:48:45;;;;;;;6.77;1.80;;;8.10;99.90;;;;;;12532906;28;20084;-35
2023/05/19 02:54:48;;;;;;;7.87;2.20;;;8.10;99.90;;;;;;12530839;28;20098;-35
2023/05/19 03:00:52;;;;;;;8.82;2.40;;;8.00;99.90;;;;;;12531596;28;20139;-35
2023/05/19 03:06:55;;;;;;;6.63;2.17;;;7.90;99.90;;;;;;12526762;28;20474;-36
2023/05/19 03:12:59;;;;;;;10.25;2.80;;;7.80;99.90;;;;;;12496998;28;20179;-35
2023/05/19 03:19:02;;;;;;;6.60;2.10;;;8.00;99.90;;;;;;12462527;28;20702;-35
2023/05/19 03:25:05;;;;;;;4.70;2.10;;;8.00;99.90;;;;;;12484893;28;20041;-36
2023/05/19 03:31:09;;;;;;;7.23;2.47;;;8.30;99.90;;;;;;12462381;28;20180;-35
2023/05/19 03:37:12;;;;;;;7.60;2.20;;;8.30;99.90;;;;;;12474029;28;20460;-36
2023/05/19 03:43:17;;;;;;;7.60;2.13;;;8.30;99.90;;;;;;12464738;28;20053;-35
2023/05/19 03:49:21;;;;;;;7.10;2.38;;;8.30;99.90;;;;;;12482820;28;20125;-35
2023/05/19 03:55:28;;;;;;;8.38;2.47;;;8.20;99.90;;;;;;12446072;28;20057;-35
2023/05/19 04:01:33;;;;;;;5.82;2.50;;;8.00;99.90;;;;;;12483525;28;20402;-35
2023/05/19 04:07:36;;;;;;;4.70;2.42;;;8.00;99.90;;;;;;12459260;28;20042;-36
2023/05/19 04:13:39;;;;;;;8.63;2.65;;;8.30;99.90;;;;;;12496666;28;20424;-36
2023/05/19 04:19:42;;;;;;;6.38;2.20;;;9.30;99.90;;;;;;12533758;28;20773;-35
2023/05/19 04:25:47;;;;;;;7.07;2.70;;;11.70;99.90;;;;;;12508235;28;20079;-35
2023/05/19 04:31:51;;;;;;;7.90;2.30;;;13.40;99.90;;;;;;12500397;28;20055;-36
2023/05/19 04:37:54;;;;;;;7.15;2.17;;;13.50;99.90;;;;;;12532359;28;20057;-36
2023/05/19 04:43:58;;;;;;;7.93;2.50;;;12.50;99.90;;;;;;12518477;28;20040;-36
2023/05/19 04:50:02;;;;;;;9.30;2.20;;;11.90;99.90;;;;;;12513832;28;20362;-36
2023/05/19 04:56:05;;;;;;;7.85;2.35;;;11.60;99.90;;;;;;12542966;28;20060;-36
2023/05/19 05:02:09;;;;;;;5.60;2.15;;;12.50;99.90;;;;;;12516618;28;20071;-36
2023/05/19 05:08:14;;;;;;;6.53;1.85;;;12.80;99.90;;;;;;12535468;28;20053;-36
2023/05/19 05:14:17;;;;;;;4.82;2.17;;;12.80;99.90;;;;;;12522478;28;20857;-35
2023/05/19 05:20:21;;;;;;;7.18;1.98;;;12.80;99.90;;;;;;12535586;28;20053;-36
2023/05/19 05:26:30;;;;;;;5.45;2.13;;;12.60;99.90;;;;;;12511572;28;20628;-36
2023/05/19 05:32:35;;;;;;;9.15;2.45;;;12.40;99.90;;;;;;12506770;28;20049;-36
2023/05/19 05:38:39;;;;;;;4.65;2.20;;;12.40;99.90;;;;;;12516316;28;20057;-38
2023/05/19 05:44:42;;;;;;;7.33;2.40;;;12.30;99.90;;;;;;12526503;28;20091;-36
2023/05/19 05:50:46;;;;;;;8.75;2.10;;;12.20;99.90;;;;;;12505272;28;20063;-36
2023/05/19 05:56:50;;;;;;;5.85;2.30;;;12.00;99.90;;;;;;12533040;28;20053;-36
2023/05/19 06:02:53;;;;;;;6.18;2.50;;;12.10;99.90;;;;;;12528221;28;20049;-36
2023/05/19 06:08:56;;;;;;;5.93;2.42;;;11.90;99.90;;;;;;12544134;28;20048;-36
2023/05/19 06:15:02;;;;;;;10.27;2.40;;;11.70;99.90;;;;;;12524657;28;20433;-36
2023/05/19 06:21:05;;;;;;;;;;;11.10;99.90;;;;;;12545035;28;20142;-36
2023/05/19 06:27:09;;;;;;;8.95;2.63;;;11.80;99.90;;;;;;12504413;28;19921;-36
2023/05/19 06:33:13;;;;;;;8.25;2.20;;;11.90;99.90;;;;;;12540534;28;20048;-36
2023/05/19 06:39:16;;;;;;;8.50;2.55;;;12.60;99.90;;;;;;12519981;28;20041;-35
2023/05/19 06:45:21;;;;;;;8.20;2.38;;;13.70;99.90;;;;;;12532707;28;20083;-36
2023/05/19 06:51:25;;;;;;;9.07;2.33;;;12.80;99.90;;;;;;12531121;28;20041;-36
2023/05/19 06:57:27;;;;;;;6.40;2.30;;;13.00;99.90;;;;;;12533069;28;20085;-36
2023/05/19 07:03:32;;;;;;;12.88;2.63;;;12.70;99.90;;;;;;12550303;28;20118;-36
2023/05/19 07:09:35;;;;;;;6.93;2.10;;;13.00;99.90;;;;;;12523445;28;20220;-36
2023/05/19 07:15:39;;;;;;;6.10;2.10;;;12.90;99.90;;;;;;12525388;28;20121;-36
2023/05/19 07:21:43;;;;;;;8.43;2.33;;;12.80;99.90;;;;;;12542445;28;20936;-36
2023/05/19 07:27:47;;;;;;;7.20;2.72;;;12.60;99.90;;;;;;12545046;28;20064;-36
2023/05/19 07:33:50;;;;;;;7.72;2.78;;;12.70;99.90;;;;;;12547335;28;20048;-36
2023/05/19 07:39:56;;;;;;;7.80;2.47;;;13.40;99.90;;;;;;12555826;28;20044;-36
2023/05/19 07:46:00;;;;;;;5.75;2.28;;;13.70;99.90;;;;;;12510333;28;20059;-36
2023/05/19 07:52:05;;;;;;;6.37;2.20;;;13.40;99.90;;;;;;12526045;28;20114;-36
2023/05/19 07:58:09;;;;;;;9.10;2.30;;;13.60;99.90;;;;;;12541595;28;20291;-37
2023/05/19 08:04:12;;;;;;;9.93;2.53;;;14.00;99.90;;;;;;12521230;28;20405;-37
2023/05/19 08:10:15;;;;;;;8.55;2.20;;;14.20;99.90;;;;;;12541725;28;20646;-37
2023/05/19 08:16:19;;;;;;;8.98;2.22;;;14.30;99.90;;;;;;12524631;28;20140;-37
2023/05/19 08:22:23;;;;;;;;;;;14.50;99.90;;;;;;12518646;28;20045;-37
2023/05/19 08:28:26;;;;;;;7.10;2.75;;;14.70;99.90;;;;;;12522197;28;19939;-37
2023/05/19 08:34:29;;;;;;;10.88;2.88;;;14.80;99.90;;;;;;12526932;28;20044;-37
2023/05/19 08:40:34;;;;;;;5.65;1.95;;;14.80;99.90;;;;;;12530910;28;20056;-37
2023/05/19 08:46:38;;;;;;;10.27;3.13;;;14.80;99.90;;;;;;12534850;28;20049;-36
2023/05/19 08:53:07;;;;;;;7.32;2.10;;;15.10;99.90;;;;;;12499453;28;20049;-37
2023/05/19 08:59:22;;;;;;;10.15;2.50;;;15.20;99.90;;;;;;12526081;28;20492;-36
2023/05/19 09:05:25;;;;;;;9.17;3.03;;;15.50;99.90;;;;;;12511189;28;20568;-37
2023/05/19 09:11:28;;;;;;;12.50;2.58;;;15.20;99.90;;;;;;12509543;28;20123;-37
2023/05/19 09:17:31;;;;;;;6.47;2.35;;;15.80;99.90;;;;;;12519119;28;20137;-37
2023/05/19 09:23:35;;;;;;;7.60;1.90;;;15.60;99.90;;;;;;12550634;28;20049;-37
2023/05/19 09:29:38;;;;;;;7.63;1.92;;;16.10;99.90;;;;;;12527474;28;20064;-37
2023/05/19 09:35:46;;;;;;;5.85;2.20;;;16.10;99.90;;;;;;12507089;28;20188;-37
2023/05/19 09:41:55;;;;;;;9.02;2.50;;;16.60;99.90;;;;;;12520052;28;20052;-36
2023/05/19 09:48:03;;;;;;;6.32;1.88;;;16.70;99.90;;;;;;12528914;28;20045;-36
2023/05/19 09:54:08;;;;;;;4.28;1.60;;;17.30;99.90;;;;;;12510970;28;20056;-36
2023/05/19 10:00:13;;;;;;;9.25;2.05;;;17.70;99.90;;;;;;12525474;28;20052;-37
2023/05/19 10:06:16;;;;;;;5.03;1.60;;;17.70;99.90;;;;;;12519393;28;20053;-38
2023/05/19 10:12:20;;;;;;;11.48;2.05;;;16.80;99.90;;;;;;12514818;28;20091;-36
2023/05/19 10:18:26;;;;;;;6.68;1.67;;;16.40;99.90;;;;;;12535094;28;20056;-38
2023/05/19 10:24:29;;;;;;;7.03;2.05;;;16.60;99.90;;;;;;12519506;28;20045;-36
2023/05/19 10:30:40;;;;;;;4.30;1.70;;;16.50;99.90;;;;;;12536422;28;20072;-35
2023/05/19 10:37:08;;;;;;;5.45;1.80;;;16.00;99.90;;;;;;12557073;28;20144;-37
2023/05/19 10:43:24;;;;;;;5.13;1.65;;;17.20;99.90;;;;;;12498909;28;20045;-37
2023/05/19 10:49:27;;;;;;;5.25;1.60;;;17.00;99.90;;;;;;12562986;28;20045;-36
2023/05/19 10:55:54;;;;;;;5.27;1.37;;;16.40;99.90;;;;;;12562760;28;20076;-36
2023/05/19 11:02:05;;;;;;;4.03;1.45;;;16.00;99.90;;;;;;12539575;28;20139;-35
2023/05/19 11:08:11;;;;;;;5.97;1.20;;;16.80;99.90;;;;;;12536378;28;20049;-36
2023/05/19 11:14:19;;;;;;;2.70;1.10;;;16.80;99.90;;;;;;12524574;28;20120;-36
2023/05/19 11:20:28;;;;;;;4.65;1.40;;;17.00;99.90;;;;;;12533940;28;20076;-37
2023/05/19 11:26:42;;;;;;;5.07;1.30;;;16.60;99.90;;;;;;12534759;28;20081;-36
2023/05/19 11:32:47;;;;;;;5.13;1.40;;;16.40;99.90;;;;;;12533924;28;20100;-35
2023/05/19 11:38:50;;;;;;;2.88;1.08;;;16.60;99.90;;;;;;12521435;28;20047;-36
2023/05/19 11:44:56;;;;;;;4.30;1.33;;;17.10;99.90;;;;;;12531317;28;20378;-36
2023/05/19 11:51:01;;;;;;;3.65;1.30;;;16.50;99.90;;;;;;12518073;28;20127;-36
2023/05/19 11:57:06;;;;;;;3.25;1.33;;;16.90;99.90;;;;;;12526227;28;20053;-37
2023/05/19 12:03:13;;;;;;;4.85;1.40;;;17.60;99.90;;;;;;12541535;28;20057;-37
2023/05/19 12:09:17;;;;;;;3.53;1.30;;;17.70;99.90;;;;;;12536691;28;20049;-37
2023/05/19 12:15:21;;;;;;;5.00;1.60;;;18.00;99.90;;;;;;12524434;28;20059;-36
2023/05/19 12:21:24;;;;;;;6.45;1.67;;;17.60;99.90;;;;;;12532298;28;20049;-37
2023/05/19 12:27:36;;;;;;;2.90;1.15;;;17.70;99.90;;;;;;12539437;28;20388;-36
2023/05/19 12:33:40;;;;;;;3.50;1.30;;;17.80;99.90;;;;;;12563319;28;20074;-36
2023/05/19 12:39:44;;;;;;;3.67;1.40;;;18.20;99.90;;;;;;12549464;28;20416;-37
2023/05/19 12:45:49;;;;;;;3.13;1.25;;;18.70;99.90;;;;;;12515426;28;20104;-37
2023/05/19 12:52:02;;;;;;;7.63;1.33;;;18.20;99.90;;;;;;12537564;28;20049;-36
2023/05/19 12:58:13;;;;;;;2.97;1.27;;;18.10;99.90;;;;;;12535461;28;20072;-37
2023/05/19 13:04:17;;;;;;;4.38;1.30;;;18.20;99.90;;;;;;12516703;28;20508;-37
2023/05/19 13:10:20;;;;;;;7.22;1.35;;;18.10;99.90;;;;;;12534325;28;20049;-36
2023/05/19 13:16:23;;;;;;;4.00;1.05;;;18.00;99.90;;;;;;12530354;28;20052;-36
2023/05/19 13:22:25;;;;;;;4.55;1.30;;;18.20;99.90;;;;;;12534824;28;20045;-36
2023/05/19 13:28:28;;;;;;;3.28;1.17;;;18.50;99.90;;;;;;12559322;28;20064;-36
2023/05/19 13:34:31;;;;;;;4.28;1.20;;;18.50;99.90;;;;;;12527954;28;20041;-36
2023/05/19 13:40:35;;;;;;;3.00;1.20;;;18.70;99.90;;;;;;12559333;28;20386;-36
2023/05/19 13:46:37;;;;;;;4.10;1.45;;;19.10;99.90;;;;;;12533220;28;20171;-36
2023/05/19 13:52:47;;;;;;;6.40;1.40;;;18.90;99.90;;;;;;12531684;28;20041;-36
2023/05/19 13:58:50;;;;;;;4.28;1.23;;;18.80;99.90;;;;;;12561778;28;20102;-36
2023/05/19 14:04:53;;;;;;;3.05;1.25;;;17.60;99.90;;;;;;12554492;28;20049;-36
2023/05/19 14:11:00;;;;;;;2.95;0.88;;;17.10;99.90;;;;;;12540866;28;20041;-36
2023/05/19 14:17:03;;;;;;;;;;;17.00;99.90;;;;;;12548689;28;20057;-36
2023/05/19 14:23:07;;;;;;;4.43;1.07;;;17.40;99.90;;;;;;12556509;28;19921;-36
2023/05/19 14:29:11;;;;;;;;;;;17.70;99.90;;;;;;12551208;28;20485;-35
2023/05/19 14:35:14;;;;;;;4.97;1.30;;;17.70;99.90;;;;;;12553753;28;19921;-36
2023/05/19 14:41:17;;;;;;;3.22;1.40;;;18.10;99.90;;;;;;12565825;28;20072;-36
2023/05/19 14:47:21;;;;;;;2.03;1.10;;;17.80;99.90;;;;;;12557275;28;20077;-37
2023/05/19 14:53:26;;;;;;;3.22;1.30;;;17.80;99.90;;;;;;12556118;28;20485;-36
2023/05/19 14:59:30;;;;;;;2.20;1.02;;;17.40;99.90;;;;;;12558413;28;20045;-36
2023/05/19 15:05:34;;;;;;;3.63;1.10;;;17.40;99.90;;;;;;12551553;28;20167;-37
2023/05/19 15:11:37;;;;;;;2.83;1.17;;;18.00;99.90;;;;;;12538180;28;20053;-36
2023/05/19 15:17:40;;;;;;;2.47;1.00;;;17.80;99.90;;;;;;12546267;28;20057;-36
2023/05/19 15:23:44;;;;;;;4.80;1.08;;;17.30;99.90;;;;;;12529468;28;20142;-36
2023/05/19 15:29:47;;;;;;;4.22;1.33;;;17.20;99.90;;;;;;12531359;28;20401;-36
2023/05/19 15:35:51;;;;;;;2.63;1.10;;;17.10;99.90;;;;;;12568815;28;20048;-36
2023/05/19 15:41:55;;;;;;;3.53;1.10;;;17.90;99.90;;;;;;12536810;28;20099;-37
2023/05/19 15:47:58;;;;;;;2.83;0.90;;;18.40;99.90;;;;;;12573684;28;20087;-37
2023/05/19 15:54:01;;;;;;;3.10;1.15;;;18.40;99.90;;;;;;12554459;28;20036;-37
2023/05/19 16:00:05;;;;;;;5.18;1.35;;;18.30;99.90;;;;;;12541212;28;20080;-37
2023/05/19 16:06:08;;;;;;;3.33;1.00;;;18.30;99.90;;;;;;12530229;28;20519;-37
2023/05/19 16:12:10;;;;;;;4.13;1.20;;;17.80;99.90;;;;;;12550238;28;20064;-36
2023/05/19 16:18:12;;;;;;;4.68;1.23;;;17.40;99.90;;;;;;12547639;28;20060;-37
2023/05/19 16:24:15;;;;;;;2.70;0.98;;;17.30;99.90;;;;;;12542724;28;20051;-36
2023/05/19 16:30:21;;;;;;;5.82;1.08;;;17.70;99.90;;;;;;12554951;28;20040;-37
2023/05/19 16:36:25;;;;;;;2.17;0.82;;;18.20;99.90;;;;;;12555494;28;20045;-36
2023/05/19 16:42:31;;;;;;;6.13;1.10;;;18.10;99.90;;;;;;12538163;28;20065;-36
2023/05/19 16:48:34;;;;;;;3.53;0.90;;;17.50;99.90;;;;;;12557905;28;20505;-36
2023/05/19 16:54:37;;;;;;;2.35;1.00;;;17.10;99.90;;;;;;12548213;28;20033;-36
2023/05/19 17:00:39;;;;;;;3.60;0.88;;;17.70;99.90;;;;;;12561421;28;20044;-37
2023/05/19 17:06:44;;;;;;;3.22;1.00;;;18.00;99.90;;;;;;12539525;28;20160;-36
2023/05/19 17:12:48;;;;;;;2.45;1.00;;;17.70;99.90;;;;;;12545199;28;20048;-36
2023/05/19 17:18:50;;;;;;;2.30;0.93;;;17.50;99.90;;;;;;12546871;28;20053;-35
2023/05/19 17:24:54;;;;;;;2.47;1.15;;;17.30;99.90;;;;;;12549928;28;20052;-35
2023/05/19 17:30:57;;;;;;;2.58;1.05;;;17.10;99.90;;;;;;12543787;28;20041;-36
2023/05/19 17:37:00;;;;;;;4.05;1.10;;;17.20;99.90;;;;;;12550635;28;20057;-36
2023/05/19 17:43:04;;;;;;;1.88;0.98;;;17.20;99.90;;;;;;12548823;28;20059;-37
2023/05/19 17:49:09;;;;;;;;;;;17.30;99.90;;;;;;12554281;28;20070;-37
2023/05/19 17:55:12;;;;;;;;;;;17.90;99.90;;;;;;12564091;28;20288;-36
2023/05/19 18:01:22;;;;;;;2.35;1.00;;;17.80;99.90;;;;;;12530286;28;19943;-36
2023/05/19 18:07:27;;;;;;;2.85;1.10;;;17.50;99.90;;;;;;12536218;28;20413;-36
2023/05/19 18:13:35;;;;;;;2.55;1.20;;;17.10;99.90;;;;;;12450225;28;1986682;-39
2023/05/19 18:19:41;;;;;;;2.85;1.08;;;17.00;99.90;;;;;;12523597;28;20068;-39
2023/05/19 18:25:52;;;;;;;3.80;1.40;;;16.80;99.90;;;;;;12542787;28;20037;-39
2023/05/19 18:31:56;;;;;;;3.22;1.08;;;16.70;99.90;;;;;;12550864;28;20048;-39
2023/05/19 18:38:00;;;;;;;3.67;1.10;;;16.60;99.90;;;;;;12544368;28;20184;-38
2023/05/19 18:44:06;;;;;;;3.30;1.20;;;16.50;99.90;;;;;;12545465;28;20064;-37
2023/05/19 18:50:10;;;;;;;1.98;0.98;;;16.40;99.90;;;;;;12554765;28;20557;-38
2023/05/19 18:56:14;;;;;;;2.92;1.30;;;16.30;99.90;;;;;;12546991;28;20065;-39
2023/05/19 19:02:18;;;;;;;2.30;1.10;;;16.20;99.90;;;;;;12524515;28;20084;-38
2023/05/19 19:08:23;;;;;;;2.85;1.00;;;16.10;99.90;;;;;;12558980;28;20406;-39
2023/05/19 19:14:27;;;;;;;3.92;0.93;;;16.00;99.90;;;;;;12528362;28;20055;-38
2023/05/19 19:20:30;;;;;;;3.53;1.08;;;15.90;99.90;;;;;;12567095;28;20048;-40
2023/05/19 19:26:33;;;;;;;3.20;1.50;;;15.80;99.90;;;;;;12537123;28;20501;-40
2023/05/19 19:32:36;;;;;;;4.40;1.98;;;15.80;99.90;;;;;;12548188;28;20052;-39
2023/05/19 19:38:40;;;;;;;4.07;1.10;;;15.70;99.90;;;;;;12556676;28;20056;-39
2023/05/19 19:44:43;;;;;;;4.35;1.15;;;15.60;99.90;;;;;;12537243;28;20049;-39
2023/05/19 19:50:51;;;;;;;4.70;1.40;;;15.50;99.90;;;;;;12558960;28;20090;-38
2023/05/19 19:56:54;;;;;;;3.78;1.48;;;15.50;99.90;;;;;;12555422;28;20151;-39
2023/05/19 20:02:59;;;;;;;5.13;1.50;;;15.40;99.90;;;;;;12538725;28;20049;-39
2023/05/19 20:09:06;;;;;;;3.20;1.40;;;15.40;99.90;;;;;;12555694;28;20056;-38
2023/05/19 20:15:10;;;;;;;4.47;1.30;;;15.50;99.90;;;;;;12525153;28;20413;-39
2023/05/19 20:21:12;;;;;;;4.40;1.23;;;15.60;99.90;;;;;;12543399;28;20049;-38
2023/05/19 20:27:15;;;;;;;3.30;1.37;;;15.40;99.90;;;;;;12576272;28;20040;-38
2023/05/19 20:33:18;;;;;;;2.67;1.38;;;15.30;99.90;;;;;;12562546;28;20309;-39
2023/05/19 20:39:21;;;;;;;5.03;1.58;;;15.10;99.90;;;;;;12545467;28;20162;-39
2023/05/19 20:45:24;;;;;;;5.03;1.57;;;15.00;99.90;;;;;;12527060;28;20096;-38
2023/05/19 20:51:28;;;;;;;4.78;1.20;;;14.90;99.90;;;;;;12538819;28;20158;-39
2023/05/19 20:57:31;;;;;;;2.45;1.27;;;14.80;99.90;;;;;;12521730;28;20413;-39
2023/05/19 21:03:35;;;;;;;2.88;1.42;;;14.60;99.90;;;;;;12547977;28;20118;-38
2023/05/19 21:09:45;;;;;;;2.65;1.50;;;14.50;99.90;;;;;;12534548;28;20409;-39
2023/05/19 21:15:48;;;;;;;3.63;1.33;;;14.20;99.90;;;;;;12532544;28;20548;-39
2023/05/19 21:21:51;;;;;;;3.92;1.35;;;14.10;99.90;;;;;;12554873;28;20086;-39
2023/05/19 21:27:54;;;;;;;4.35;1.70;;;14.10;99.90;;;;;;12529016;28;20902;-38
2023/05/19 21:33:58;;;;;;;4.72;1.30;;;14.30;99.90;;;;;;12526466;28;20037;-39
2023/05/19 21:40:01;;;;;;;4.78;1.33;;;14.10;99.90;;;;;;12546976;28;20494;-39
2023/05/19 21:46:05;;;;;;;5.28;1.60;;;13.90;99.90;;;;;;12560514;28;20098;-38
2023/05/19 21:52:08;;;;;;;5.40;1.90;;;13.90;99.90;;;;;;12530430;28;20049;-39
2023/05/19 21:58:12;;;;;;;4.50;1.50;;;14.00;99.90;;;;;;12556056;28;20047;-37
2023/05/19 22:04:19;;;;;;;2.53;1.20;;;13.90;99.90;;;;;;12547520;28;20056;-38
2023/05/19 22:10:24;;;;;;;7.50;1.52;;;13.80;99.90;;;;;;12523668;28;20049;-37
2023/05/19 22:16:27;;;;;;;6.40;1.50;;;13.70;99.90;;;;;;12534290;28;20152;-37
2023/05/19 22:22:30;;;;;;;2.67;1.38;;;13.90;99.90;;;;;;12540387;28;20505;-37
2023/05/19 22:28:33;;;;;;;7.80;1.40;;;13.90;99.90;;;;;;12520905;28;20048;-37
2023/05/19 22:34:37;;;;;;;4.35;1.60;;;13.90;99.90;;;;;;12543334;28;20037;-37
2023/05/19 22:40:42;;;;;;;3.03;1.60;;;13.40;99.90;;;;;;12557836;28;20117;-38
2023/05/19 22:46:44;;;;;;;3.42;1.42;;;13.40;99.90;;;;;;12531822;28;20496;-38
2023/05/19 22:52:48;;;;;;;3.95;1.45;;;13.30;99.90;;;;;;12544663;28;20090;-37
2023/05/19 22:58:51;;;;;;;3.58;1.50;;;13.40;99.90;;;;;;12530028;28;20178;-37
2023/05/19 23:04:54;;;;;;;5.30;1.50;;;13.40;99.90;;;;;;12535931;28;20052;-37
2023/05/19 23:11:01;;;;;;;4.57;1.35;;;13.30;99.90;;;;;;12535423;28;20531;-38
2023/05/19 23:17:04;;;;;;;6.20;1.52;;;13.20;99.90;;;;;;12522251;28;20053;-36
2023/05/19 23:23:08;;;;;;;4.32;1.40;;;13.20;99.90;;;;;;12551001;28;20132;-38
2023/05/19 23:29:12;;;;;;;2.50;1.20;;;13.20;99.90;;;;;;12557620;28;20044;-38
2023/05/19 23:35:17;;;;;;;4.75;1.20;;;13.10;99.90;;;;;;12549838;28;20052;-40
2023/05/19 23:41:21;;;;;;;;;;;13.00;99.90;;;;;;12526233;28;20052;-37
2023/05/19 23:47:24;;;;;;;2.28;1.30;;;12.90;99.90;;;;;;12553883;28;19925;-38
2023/05/19 23:53:27;;;;;;;2.85;1.20;;;12.90;99.90;;;;;;12544984;28;20053;-37
2023/05/19 23:59:30;;;;;;;5.05;1.50;;;12.70;99.90;;;;;;12552174;28;20049;-37
